createdAt,value
2023-05-05T00:00:12.085Z,95290.00
2023-05-05T00:01:12.039Z,95288.00
2023-05-05T00:02:12.087Z,95290.00
2023-05-05T00:03:12.096Z,95292.00
2023-05-05T00:04:12.068Z,95290.00
2023-05-05T00:05:12.080Z,95288.00
2023-05-05T00:06:12.091Z,95288.00
2023-05-05T00:07:12.324Z,95284.00
2023-05-05T00:08:12.131Z,95288.00
2023-05-05T00:09:12.103Z,95284.00
2023-05-05T00:10:12.141Z,95286.00
2023-05-05T00:11:12.113Z,95286.00
2023-05-05T00:12:12.154Z,95286.00
2023-05-05T00:13:12.190Z,95286.00
2023-05-05T00:14:12.144Z,95284.00
2023-05-05T00:15:12.192Z,95284.00
2023-05-05T00:16:12.178Z,95282.00
2023-05-05T00:17:12.321Z,95284.00
2023-05-05T00:18:12.167Z,95284.00
2023-05-05T00:19:12.202Z,95284.00
2023-05-05T00:20:12.174Z,95286.00
2023-05-05T00:21:12.228Z,95286.00
2023-05-05T00:22:12.189Z,95286.00
2023-05-05T00:23:12.215Z,95288.00
2023-05-05T00:24:12.220Z,95286.00
2023-05-05T00:25:12.203Z,95286.00
2023-05-05T00:26:12.228Z,95286.00
2023-05-05T00:27:12.265Z,95284.00
2023-05-05T00:28:12.312Z,95286.00
2023-05-05T00:29:12.318Z,95286.00
2023-05-05T00:30:12.330Z,95284.00
2023-05-05T00:31:12.354Z,95286.00
2023-05-05T00:32:12.414Z,95286.00
2023-05-05T00:33:12.362Z,95286.00
2023-05-05T00:34:12.394Z,95286.00
2023-05-05T00:35:12.434Z,95288.00
2023-05-05T00:36:12.431Z,95288.00
2023-05-05T00:37:12.443Z,95286.00
2023-05-05T00:38:12.462Z,95288.00
2023-05-05T00:39:12.501Z,95288.00
2023-05-05T00:40:12.503Z,95288.00
2023-05-05T00:41:12.468Z,95290.00
2023-05-05T00:42:12.851Z,95290.00
2023-05-05T00:43:12.475Z,95292.00
2023-05-05T00:44:12.504Z,95290.00
2023-05-05T00:45:12.536Z,95292.00
2023-05-05T00:46:12.571Z,95292.00
2023-05-05T00:47:12.861Z,95292.00
2023-05-05T00:48:12.604Z,95294.00
2023-05-05T00:49:12.613Z,95292.00
2023-05-05T00:50:12.615Z,95290.00
2023-05-05T00:51:12.615Z,95290.00
2023-05-05T00:52:12.649Z,95288.00
2023-05-05T00:53:12.693Z,95288.00
2023-05-05T00:54:12.705Z,95290.00
2023-05-05T00:55:12.752Z,95286.00
2023-05-05T00:56:12.734Z,95286.00
2023-05-05T00:57:12.723Z,95288.00
2023-05-05T00:58:12.761Z,95290.00
2023-05-05T00:59:12.773Z,95286.00
2023-05-05T01:00:12.820Z,95288.00
2023-05-05T01:01:12.798Z,95288.00
2023-05-05T01:02:12.820Z,95288.00
2023-05-05T01:03:12.919Z,95290.00
2023-05-05T01:04:12.865Z,95290.00
2023-05-05T01:05:12.900Z,95288.00
2023-05-05T01:06:12.877Z,95288.00
2023-05-05T01:07:12.919Z,95280.00
2023-05-05T01:08:12.945Z,95278.00
2023-05-05T01:09:12.930Z,95280.00
2023-05-05T01:10:20.470Z,95280.00
2023-05-05T01:11:13.973Z,95282.00
2023-05-05T01:12:12.965Z,95280.00
2023-05-05T01:13:13.084Z,95284.00
2023-05-05T01:14:12.971Z,95282.00
2023-05-05T01:15:12.956Z,95280.00
2023-05-05T01:16:13.019Z,95282.00
2023-05-05T01:17:12.947Z,95280.00
2023-05-05T01:18:12.939Z,95282.00
2023-05-05T01:19:12.912Z,95284.00
2023-05-05T01:20:12.912Z,95280.00
2023-05-05T01:21:12.882Z,95282.00
2023-05-05T01:22:12.922Z,95280.00
2023-05-05T01:23:12.873Z,95280.00
2023-05-05T01:24:12.904Z,95282.00
2023-05-05T01:25:12.883Z,95282.00
2023-05-05T01:26:12.895Z,95286.00
2023-05-05T01:27:12.862Z,95286.00
2023-05-05T01:28:12.861Z,95286.00
2023-05-05T01:29:12.825Z,95288.00
2023-05-05T01:30:12.846Z,95288.00
2023-05-05T01:31:12.844Z,95290.00
2023-05-05T01:32:12.799Z,95288.00
2023-05-05T01:33:12.809Z,95286.00
2023-05-05T01:34:12.833Z,95284.00
2023-05-05T01:35:12.851Z,95288.00
2023-05-05T01:36:12.857Z,95288.00
2023-05-05T01:37:12.866Z,95290.00
2023-05-05T01:38:12.840Z,95294.00
2023-05-05T01:39:12.898Z,95294.00
2023-05-05T01:40:12.893Z,95292.00
2023-05-05T01:41:12.973Z,95292.00
2023-05-05T01:42:12.911Z,95292.00
2023-05-05T01:43:12.921Z,95294.00
2023-05-05T01:44:12.915Z,95292.00
2023-05-05T01:45:12.949Z,95294.00
2023-05-05T01:46:13.011Z,95294.00
2023-05-05T01:47:12.973Z,95296.00
2023-05-05T01:48:13.006Z,95294.00
2023-05-05T01:49:12.986Z,95294.00
2023-05-05T01:50:12.994Z,95294.00
2023-05-05T01:51:13.010Z,95296.00
2023-05-05T01:52:13.011Z,95294.00
2023-05-05T01:53:13.012Z,95294.00
2023-05-05T01:54:12.975Z,95292.00
2023-05-05T01:55:13.008Z,95288.00
2023-05-05T01:56:12.999Z,95292.00
2023-05-05T01:57:13.000Z,95296.00
2023-05-05T01:58:13.035Z,95297.00
2023-05-05T01:59:13.012Z,95296.00
2023-05-05T02:00:13.059Z,95299.00
2023-05-05T02:01:13.107Z,95299.00
2023-05-05T02:02:13.114Z,95299.00
2023-05-05T02:03:13.199Z,95297.00
2023-05-05T02:04:13.084Z,95296.00
2023-05-05T02:05:13.108Z,95296.00
2023-05-05T02:06:13.130Z,95296.00
2023-05-05T02:07:13.119Z,95297.00
2023-05-05T02:08:13.392Z,95297.00
2023-05-05T02:09:13.167Z,95299.00
2023-05-05T02:10:13.143Z,95301.00
2023-05-05T02:11:13.148Z,95301.00
2023-05-05T02:12:13.188Z,95301.00
2023-05-05T02:13:13.396Z,95301.00
2023-05-05T02:14:13.294Z,95303.00
2023-05-05T02:15:13.219Z,95301.00
2023-05-05T02:16:13.391Z,95305.00
2023-05-05T02:17:13.268Z,95307.00
2023-05-05T02:18:13.260Z,95307.00
2023-05-05T02:19:13.224Z,95305.00
2023-05-05T02:20:13.237Z,95303.00
2023-05-05T02:21:13.246Z,95307.00
2023-05-05T02:22:13.267Z,95305.00
2023-05-05T02:23:13.265Z,95309.00
2023-05-05T02:24:13.261Z,95307.00
2023-05-05T02:25:13.284Z,95309.00
2023-05-05T02:26:13.321Z,95307.00
2023-05-05T02:27:13.303Z,95307.00
2023-05-05T02:28:13.412Z,95307.00
2023-05-05T02:29:13.334Z,95311.00
2023-05-05T02:30:13.364Z,95309.00
2023-05-05T02:31:13.418Z,95309.00
2023-05-05T02:32:13.326Z,95309.00
2023-05-05T02:33:13.360Z,95309.00
2023-05-05T02:34:13.373Z,95305.00
2023-05-05T02:35:13.387Z,95307.00
2023-05-05T02:36:13.384Z,95307.00
2023-05-05T02:37:13.360Z,95307.00
2023-05-05T02:38:13.372Z,95309.00
2023-05-05T02:39:13.420Z,95309.00
2023-05-05T02:40:13.422Z,95313.00
2023-05-05T02:41:13.437Z,95315.00
2023-05-05T02:42:13.431Z,95315.00
2023-05-05T02:43:13.485Z,95315.00
2023-05-05T02:44:13.456Z,95315.00
2023-05-05T02:45:13.481Z,95315.00
2023-05-05T02:46:13.471Z,95315.00
2023-05-05T02:47:13.469Z,95315.00
2023-05-05T02:48:13.503Z,95313.00
2023-05-05T02:49:13.467Z,95315.00
2023-05-05T02:50:13.504Z,95313.00
2023-05-05T02:51:13.555Z,95315.00
2023-05-05T02:52:13.532Z,95317.00
2023-05-05T02:53:13.549Z,95315.00
2023-05-05T02:54:13.535Z,95317.00
2023-05-05T02:55:13.566Z,95317.00
2023-05-05T02:56:13.586Z,95317.00
2023-05-05T02:57:13.599Z,95315.00
2023-05-05T02:58:13.639Z,95315.00
2023-05-05T02:59:15.966Z,95311.00
2023-05-05T03:00:13.646Z,95313.00
2023-05-05T03:01:13.659Z,95311.00
2023-05-05T03:02:13.593Z,95311.00
2023-05-05T03:03:13.660Z,95313.00
2023-05-05T03:04:13.589Z,95317.00
2023-05-05T03:05:13.560Z,95317.00
2023-05-05T03:06:13.609Z,95321.00
2023-05-05T03:07:13.607Z,95319.00
2023-05-05T03:08:13.548Z,95319.00
2023-05-05T03:09:13.549Z,95319.00
2023-05-05T03:10:13.559Z,95317.00
2023-05-05T03:11:13.560Z,95319.00
2023-05-05T03:12:13.559Z,95315.00
2023-05-05T03:13:13.649Z,95313.00
2023-05-05T03:14:13.545Z,95315.00
2023-05-05T03:15:13.533Z,95313.00
2023-05-05T03:16:13.501Z,95317.00
2023-05-05T03:17:13.532Z,95317.00
2023-05-05T03:18:13.509Z,95319.00
2023-05-05T03:19:13.484Z,95317.00
2023-05-05T03:20:13.484Z,95319.00
2023-05-05T03:21:13.499Z,95319.00
2023-05-05T03:22:13.503Z,95319.00
2023-05-05T03:23:13.484Z,95317.00
2023-05-05T03:24:13.450Z,95317.00
2023-05-05T03:25:13.430Z,95319.00
2023-05-05T03:26:13.449Z,95313.00
2023-05-05T03:27:13.429Z,95313.00
2023-05-05T03:28:13.441Z,95315.00
2023-05-05T03:29:13.403Z,95315.00
2023-05-05T03:30:13.395Z,95315.00
2023-05-05T03:31:13.400Z,95317.00
2023-05-05T03:32:13.429Z,95317.00
2023-05-05T03:33:13.392Z,95319.00
2023-05-05T03:34:13.382Z,95319.00
2023-05-05T03:35:13.412Z,95315.00
2023-05-05T03:36:13.401Z,95315.00
2023-05-05T03:37:13.428Z,95317.00
2023-05-05T03:38:13.376Z,95315.00
2023-05-05T03:39:13.366Z,95315.00
2023-05-05T03:40:13.361Z,95317.00
2023-05-05T03:41:13.375Z,95321.00
2023-05-05T03:42:13.338Z,95319.00
2023-05-05T03:43:13.333Z,95319.00
2023-05-05T03:44:13.325Z,95319.00
2023-05-05T03:45:13.313Z,95319.00
2023-05-05T03:46:13.315Z,95321.00
2023-05-05T03:47:13.277Z,95319.00
2023-05-05T03:48:13.267Z,95317.00
2023-05-05T03:49:13.294Z,95317.00
2023-05-05T03:50:13.282Z,95319.00
2023-05-05T03:51:13.278Z,95315.00
2023-05-05T03:52:14.977Z,95315.00
2023-05-05T03:53:13.258Z,95315.00
2023-05-05T03:54:13.251Z,95319.00
2023-05-05T03:55:13.236Z,95317.00
2023-05-05T03:56:13.225Z,95315.00
2023-05-05T03:57:13.236Z,95315.00
2023-05-05T03:58:13.243Z,95317.00
2023-05-05T03:59:13.230Z,95313.00
2023-05-05T04:00:13.213Z,95315.00
2023-05-05T04:01:13.194Z,95313.00
2023-05-05T04:02:13.203Z,95311.00
2023-05-05T04:03:13.359Z,95309.00
2023-05-05T04:04:13.259Z,95315.00
2023-05-05T04:05:13.180Z,95313.00
2023-05-05T04:06:13.156Z,95315.00
2023-05-05T04:07:13.229Z,95317.00
2023-05-05T04:08:13.450Z,95319.00
2023-05-05T04:09:13.133Z,95317.00
2023-05-05T04:10:13.162Z,95315.00
2023-05-05T04:11:13.161Z,95317.00
2023-05-05T04:12:13.143Z,95317.00
2023-05-05T04:13:13.217Z,95315.00
2023-05-05T04:14:13.126Z,95319.00
2023-05-05T04:15:13.116Z,95315.00
2023-05-05T04:16:13.151Z,95315.00
2023-05-05T04:17:13.105Z,95317.00
2023-05-05T04:18:13.869Z,95317.00
2023-05-05T04:19:13.106Z,95317.00
2023-05-05T04:20:13.102Z,95317.00
2023-05-05T04:21:13.107Z,95317.00
2023-05-05T04:22:13.059Z,95317.00
2023-05-05T04:23:13.457Z,95319.00
2023-05-05T04:24:13.073Z,95319.00
2023-05-05T04:25:13.073Z,95319.00
2023-05-05T04:26:13.051Z,95319.00
2023-05-05T04:27:13.071Z,95319.00
2023-05-05T04:28:13.074Z,95321.00
2023-05-05T04:29:13.106Z,95317.00
2023-05-05T04:30:13.182Z,95319.00
2023-05-05T04:31:13.158Z,95321.00
2023-05-05T04:32:13.117Z,95323.00
2023-05-05T04:33:13.150Z,95323.00
2023-05-05T04:34:13.112Z,95325.00
2023-05-05T04:35:13.216Z,95327.00
2023-05-05T04:36:13.141Z,95327.00
2023-05-05T04:37:13.188Z,95327.00
2023-05-05T04:38:13.230Z,95325.00
2023-05-05T04:39:13.234Z,95331.00
2023-05-05T04:40:13.249Z,95331.00
2023-05-05T04:41:13.209Z,95327.00
2023-05-05T04:42:13.240Z,95329.00
2023-05-05T04:43:13.264Z,95331.00
2023-05-05T04:44:13.279Z,95329.00
2023-05-05T04:45:13.244Z,95331.00
2023-05-05T04:46:13.272Z,95331.00
2023-05-05T04:47:14.656Z,95333.00
2023-05-05T04:48:13.317Z,95335.00
2023-05-05T04:49:13.344Z,95335.00
2023-05-05T04:50:13.375Z,95333.00
2023-05-05T04:51:13.344Z,95331.00
2023-05-05T04:52:13.379Z,95333.00
2023-05-05T04:53:13.399Z,95333.00
2023-05-05T04:54:13.407Z,95335.00
2023-05-05T04:55:13.456Z,95333.00
2023-05-05T04:56:13.494Z,95333.00
2023-05-05T04:57:13.491Z,95335.00
2023-05-05T04:58:13.535Z,95335.00
2023-05-05T04:59:13.540Z,95335.00
2023-05-05T05:00:13.569Z,95337.00
2023-05-05T05:01:13.553Z,95337.00
2023-05-05T05:02:13.677Z,95341.00
2023-05-05T05:03:13.620Z,95343.00
2023-05-05T05:04:13.578Z,95343.00
2023-05-05T05:05:13.615Z,95343.00
2023-05-05T05:06:13.632Z,95345.00
2023-05-05T05:07:13.638Z,95345.00
2023-05-05T05:08:13.640Z,95345.00
2023-05-05T05:09:13.645Z,95343.00
2023-05-05T05:10:13.657Z,95347.00
2023-05-05T05:11:13.668Z,95345.00
2023-05-05T05:12:13.690Z,95347.00
2023-05-05T05:13:13.800Z,95347.00
2023-05-05T05:14:13.721Z,95350.00
2023-05-05T05:15:13.762Z,95347.00
2023-05-05T05:16:13.807Z,95350.00
2023-05-05T05:17:13.770Z,95347.00
2023-05-05T05:18:13.820Z,95343.00
2023-05-05T05:19:13.772Z,95345.00
2023-05-05T05:20:13.776Z,95347.00
2023-05-05T05:21:13.849Z,95347.00
2023-05-05T05:22:13.833Z,95347.00
2023-05-05T05:23:13.858Z,95347.00
2023-05-05T05:24:13.838Z,95343.00
2023-05-05T05:25:13.876Z,95345.00
2023-05-05T05:26:13.880Z,95345.00
2023-05-05T05:27:13.887Z,95345.00
2023-05-05T05:28:13.894Z,95347.00
2023-05-05T05:29:13.925Z,95345.00
2023-05-05T05:30:13.937Z,95345.00
2023-05-05T05:31:13.983Z,95345.00
2023-05-05T05:32:13.996Z,95345.00
2023-05-05T05:33:13.984Z,95345.00
2023-05-05T05:34:14.024Z,95345.00
2023-05-05T05:35:14.031Z,95345.00
2023-05-05T05:36:14.004Z,95347.00
2023-05-05T05:37:14.041Z,95345.00
2023-05-05T05:38:14.470Z,95347.00
2023-05-05T05:39:14.069Z,95345.00
2023-05-05T05:40:14.028Z,95348.00
2023-05-05T05:41:14.068Z,95347.00
2023-05-05T05:42:14.086Z,95347.00
2023-05-05T05:43:14.089Z,95348.00
2023-05-05T05:44:14.098Z,95348.00
2023-05-05T05:45:14.130Z,95350.00
2023-05-05T05:46:14.256Z,95350.00
2023-05-05T05:47:14.165Z,95348.00
2023-05-05T05:48:14.175Z,95348.00
2023-05-05T05:49:14.312Z,95350.00
2023-05-05T05:50:14.177Z,95352.00
2023-05-05T05:51:14.145Z,95350.00
2023-05-05T05:52:14.149Z,95350.00
2023-05-05T05:53:14.177Z,95350.00
2023-05-05T05:54:14.168Z,95350.00
2023-05-05T05:55:14.184Z,95352.00
2023-05-05T05:56:14.987Z,95354.00
2023-05-05T05:57:14.191Z,95352.00
2023-05-05T05:58:14.505Z,95352.00
2023-05-05T05:59:14.194Z,95350.00
2023-05-05T06:00:14.207Z,95350.00
2023-05-05T06:01:14.217Z,95352.00
2023-05-05T06:02:14.351Z,95354.00
2023-05-05T06:03:14.814Z,95350.00
2023-05-05T06:04:14.250Z,95352.00
2023-05-05T06:05:14.242Z,95356.00
2023-05-05T06:06:14.261Z,95356.00
2023-05-05T06:07:14.249Z,95356.00
2023-05-05T06:08:14.312Z,95354.00
2023-05-05T06:09:14.589Z,95356.00
2023-05-05T06:10:26.590Z,95354.00
2023-05-05T06:11:15.384Z,95356.00
2023-05-05T06:12:14.388Z,95356.00
2023-05-05T06:13:14.381Z,95354.00
2023-05-05T06:14:14.505Z,95356.00
2023-05-05T06:15:14.342Z,95352.00
2023-05-05T06:16:14.329Z,95356.00
2023-05-05T06:17:14.316Z,95356.00
2023-05-05T06:18:14.360Z,95352.00
2023-05-05T06:19:14.511Z,95354.00
2023-05-05T06:20:14.325Z,95348.00
2023-05-05T06:21:14.375Z,95354.00
2023-05-05T06:22:14.413Z,95350.00
2023-05-05T06:23:14.482Z,95350.00
2023-05-05T06:24:14.551Z,95348.00
2023-05-05T06:25:14.588Z,95348.00
2023-05-05T06:26:14.631Z,95347.00
2023-05-05T06:27:14.665Z,95347.00
2023-05-05T06:28:14.717Z,95348.00
2023-05-05T06:29:14.737Z,95350.00
2023-05-05T06:30:14.827Z,95350.00
2023-05-05T06:31:14.892Z,95345.00
2023-05-05T06:32:14.894Z,95345.00
2023-05-05T06:33:14.957Z,95347.00
2023-05-05T06:34:15.005Z,95341.00
2023-05-05T06:35:15.009Z,95341.00
2023-05-05T06:36:15.060Z,95341.00
2023-05-05T06:37:15.061Z,95339.00
2023-05-05T06:38:15.139Z,95339.00
2023-05-05T06:39:16.226Z,95335.00
2023-05-05T06:40:15.164Z,95333.00
2023-05-05T06:41:15.225Z,95331.00
2023-05-05T06:42:15.220Z,95327.00
2023-05-05T06:43:15.259Z,95329.00
2023-05-05T06:44:15.313Z,95327.00
2023-05-05T06:45:15.353Z,95327.00
2023-05-05T06:46:15.411Z,95327.00
2023-05-05T06:47:15.399Z,95325.00
2023-05-05T06:48:15.437Z,95325.00
2023-05-05T06:49:15.449Z,95321.00
2023-05-05T06:50:15.492Z,95327.00
2023-05-05T06:51:15.561Z,95323.00
2023-05-05T06:52:15.546Z,95321.00
2023-05-05T06:53:15.562Z,95317.00
2023-05-05T06:54:15.647Z,95315.00
2023-05-05T06:55:15.675Z,95317.00
2023-05-05T06:56:15.720Z,95319.00
2023-05-05T06:57:15.763Z,95323.00
2023-05-05T06:58:15.839Z,95321.00
2023-05-05T06:59:15.926Z,95323.00
2023-05-05T07:00:15.918Z,95321.00
2023-05-05T07:01:15.962Z,95327.00
2023-05-05T07:02:15.996Z,95321.00
2023-05-05T07:03:16.289Z,95319.00
2023-05-05T07:04:16.180Z,95321.00
2023-05-05T07:05:16.072Z,95319.00
2023-05-05T07:06:16.083Z,95319.00
2023-05-05T07:07:16.114Z,95319.00
2023-05-05T07:08:16.108Z,95313.00
2023-05-05T07:09:17.221Z,95317.00
2023-05-05T07:10:16.145Z,95317.00
2023-05-05T07:11:16.145Z,95315.00
2023-05-05T07:12:16.158Z,95311.00
2023-05-05T07:13:16.228Z,95311.00
2023-05-05T07:14:16.171Z,95313.00
2023-05-05T07:15:27.450Z,95313.00
2023-05-05T07:16:17.196Z,95309.00
2023-05-05T07:17:16.159Z,95309.00
2023-05-05T07:18:16.165Z,95305.00
2023-05-05T07:19:16.279Z,95301.00
2023-05-05T07:20:16.154Z,95299.00
2023-05-05T07:21:16.156Z,95299.00
2023-05-05T07:22:16.139Z,95292.00
2023-05-05T07:23:16.214Z,95297.00
2023-05-05T07:24:16.115Z,95296.00
2023-05-05T07:25:16.117Z,95294.00
2023-05-05T07:26:16.091Z,95294.00
2023-05-05T07:27:16.096Z,95296.00
2023-05-05T07:28:16.088Z,95294.00
2023-05-05T07:29:16.077Z,95296.00
2023-05-05T07:30:18.419Z,95294.00
2023-05-05T07:31:16.189Z,95292.00
2023-05-05T07:32:16.180Z,95294.00
2023-05-05T07:33:16.203Z,95290.00
2023-05-05T07:34:16.230Z,95288.00
2023-05-05T07:35:16.359Z,95290.00
2023-05-05T07:36:16.298Z,95286.00
2023-05-05T07:37:16.357Z,95286.00
2023-05-05T07:38:16.396Z,95286.00
2023-05-05T07:39:16.446Z,95284.00
2023-05-05T07:40:16.503Z,95284.00
2023-05-05T07:41:16.561Z,95280.00
2023-05-05T07:42:16.620Z,95280.00
2023-05-05T07:43:16.688Z,95280.00
2023-05-05T07:44:16.737Z,95280.00
2023-05-05T07:45:16.798Z,95278.00
2023-05-05T07:46:16.886Z,95278.00
2023-05-05T07:47:16.907Z,95276.00
2023-05-05T07:48:16.968Z,95272.00
2023-05-05T07:49:17.024Z,95272.00
2023-05-05T07:50:17.094Z,95266.00
2023-05-05T07:51:17.179Z,95264.00
2023-05-05T07:52:17.198Z,95264.00
2023-05-05T07:53:17.212Z,95264.00
2023-05-05T07:54:17.259Z,95262.00
2023-05-05T07:55:17.328Z,95262.00
2023-05-05T07:56:17.388Z,95260.00
2023-05-05T07:57:17.394Z,95256.00
2023-05-05T07:58:17.467Z,95258.00
2023-05-05T07:59:17.511Z,95258.00
2023-05-05T08:00:17.549Z,95256.00
2023-05-05T08:01:17.590Z,95252.00
2023-05-05T08:02:17.653Z,95254.00
2023-05-05T08:03:17.706Z,95258.00
2023-05-05T08:04:18.097Z,95258.00
2023-05-05T08:05:17.747Z,95256.00
2023-05-05T08:06:17.798Z,95256.00
2023-05-05T08:07:17.939Z,95260.00
2023-05-05T08:08:17.842Z,95256.00
2023-05-05T08:09:17.892Z,95252.00
2023-05-05T08:10:17.891Z,95252.00
2023-05-05T08:11:17.929Z,95250.00
2023-05-05T08:12:17.967Z,95254.00
2023-05-05T08:13:18.087Z,95252.00
2023-05-05T08:14:18.056Z,95250.00
2023-05-05T08:15:18.036Z,95252.00
2023-05-05T08:16:18.098Z,95249.00
2023-05-05T08:17:18.087Z,95249.00
2023-05-05T08:18:18.151Z,95245.00
2023-05-05T08:19:28.288Z,95243.00
2023-05-05T08:20:19.119Z,95245.00
2023-05-05T08:21:18.117Z,95245.00
2023-05-05T08:22:18.123Z,95241.00
2023-05-05T08:23:18.234Z,95239.00
2023-05-05T08:24:18.559Z,95239.00
2023-05-05T08:25:18.098Z,95239.00
2023-05-05T08:26:18.119Z,95235.00
2023-05-05T08:27:18.090Z,95237.00
2023-05-05T08:28:18.091Z,95237.00
2023-05-05T08:29:18.583Z,95235.00
2023-05-05T08:30:18.085Z,95233.00
2023-05-05T08:31:18.089Z,95231.00
2023-05-05T08:32:18.051Z,95233.00
2023-05-05T08:33:18.143Z,95231.00
2023-05-05T08:34:18.043Z,95227.00
2023-05-05T08:35:18.095Z,95225.00
2023-05-05T08:36:18.047Z,95223.00
2023-05-05T08:37:18.014Z,95221.00
2023-05-05T08:38:17.988Z,95219.00
2023-05-05T08:39:18.304Z,95217.00
2023-05-05T08:40:18.110Z,95219.00
2023-05-05T08:41:18.087Z,95215.00
2023-05-05T08:42:29.301Z,95213.00
2023-05-05T08:43:19.096Z,95209.00
2023-05-05T08:44:18.109Z,95207.00
2023-05-05T08:45:18.077Z,95205.00
2023-05-05T08:46:18.192Z,95207.00
2023-05-05T08:47:18.067Z,95207.00
2023-05-05T08:48:18.031Z,95203.00
2023-05-05T08:49:18.069Z,95202.00
2023-05-05T08:50:18.084Z,95200.00
2023-05-05T08:51:18.033Z,95198.00
2023-05-05T08:52:18.121Z,95196.00
2023-05-05T08:53:18.039Z,95194.00
2023-05-05T08:54:18.109Z,95196.00
2023-05-05T08:55:18.078Z,95196.00
2023-05-05T08:56:17.973Z,95194.00
2023-05-05T08:57:17.998Z,95196.00
2023-05-05T08:58:18.020Z,95196.00
2023-05-05T08:59:17.971Z,95194.00
2023-05-05T09:00:17.964Z,95192.00
2023-05-05T09:01:18.017Z,95194.00
2023-05-05T09:02:18.007Z,95192.00
2023-05-05T09:03:18.032Z,95190.00
2023-05-05T09:04:17.976Z,95186.00
2023-05-05T09:05:17.962Z,95186.00
2023-05-05T09:06:17.990Z,95184.00
2023-05-05T09:07:18.094Z,95182.00
2023-05-05T09:08:18.133Z,95182.00
2023-05-05T09:09:18.140Z,95180.00
2023-05-05T09:10:18.128Z,95180.00
2023-05-05T09:11:18.268Z,95180.00
2023-05-05T09:12:18.165Z,95178.00
2023-05-05T09:13:18.245Z,95176.00
2023-05-05T09:14:18.188Z,95172.00
2023-05-05T09:15:18.178Z,95174.00
2023-05-05T09:16:18.215Z,95172.00
2023-05-05T09:17:18.176Z,95164.00
2023-05-05T09:18:18.242Z,95170.00
2023-05-05T09:19:18.582Z,95166.00
2023-05-05T09:20:18.206Z,95164.00
2023-05-05T09:21:18.233Z,95162.00
2023-05-05T09:22:18.220Z,95160.00
2023-05-05T09:23:18.244Z,95158.00
2023-05-05T09:24:18.248Z,95156.00
2023-05-05T09:25:18.237Z,95154.00
2023-05-05T09:26:18.225Z,95156.00
2023-05-05T09:27:18.302Z,95154.00
2023-05-05T09:28:18.258Z,95152.00
2023-05-05T09:29:18.222Z,95152.00
2023-05-05T09:30:18.265Z,95151.00
2023-05-05T09:31:18.271Z,95151.00
2023-05-05T09:32:18.230Z,95149.00
2023-05-05T09:33:18.270Z,95141.00
2023-05-05T09:34:18.263Z,95139.00
2023-05-05T09:35:18.306Z,95137.00
2023-05-05T09:36:18.308Z,95135.00
2023-05-05T09:37:18.310Z,95135.00
2023-05-05T09:38:18.327Z,95131.00
2023-05-05T09:39:18.600Z,95131.00
2023-05-05T09:40:18.385Z,95129.00
2023-05-05T09:41:18.364Z,95135.00
2023-05-05T09:42:18.410Z,95133.00
2023-05-05T09:43:18.474Z,95129.00
2023-05-05T09:44:18.412Z,95127.00
2023-05-05T09:45:18.622Z,95123.00
2023-05-05T09:46:18.516Z,95125.00
2023-05-05T09:47:28.945Z,95125.00
2023-05-05T09:48:19.458Z,95125.00
2023-05-05T09:49:18.445Z,95119.00
2023-05-05T09:50:18.831Z,95119.00
2023-05-05T09:51:18.404Z,95121.00
2023-05-05T09:52:18.411Z,95117.00
2023-05-05T09:53:18.391Z,95115.00
2023-05-05T09:54:19.505Z,95115.00
2023-05-05T09:55:18.423Z,95115.00
2023-05-05T09:56:18.376Z,95113.00
2023-05-05T09:57:18.416Z,95113.00
2023-05-05T09:58:18.537Z,95111.00
2023-05-05T09:59:18.588Z,95109.00
2023-05-05T10:00:18.583Z,95109.00
2023-05-05T10:01:18.616Z,95109.00
2023-05-05T10:02:18.648Z,95109.00
2023-05-05T10:03:18.694Z,95105.00
2023-05-05T10:04:18.748Z,95103.00
2023-05-05T10:05:18.927Z,95105.00
2023-05-05T10:06:18.820Z,95102.00
2023-05-05T10:07:18.845Z,95102.00
2023-05-05T10:08:18.909Z,95102.00
2023-05-05T10:09:18.967Z,95102.00
2023-05-05T10:10:18.992Z,95100.00
2023-05-05T10:11:19.025Z,95100.00
2023-05-05T10:12:19.065Z,95098.00
2023-05-05T10:13:19.170Z,95094.00
2023-05-05T10:14:19.180Z,95090.00
2023-05-05T10:15:19.314Z,95088.00
2023-05-05T10:16:19.288Z,95090.00
2023-05-05T10:17:19.359Z,95088.00
2023-05-05T10:18:19.412Z,95086.00
2023-05-05T10:19:19.589Z,95086.00
2023-05-05T10:20:19.507Z,95084.00
2023-05-05T10:21:19.550Z,95082.00
2023-05-05T10:22:19.615Z,95080.00
2023-05-05T10:23:19.662Z,95078.00
2023-05-05T10:24:19.678Z,95078.00
2023-05-05T10:25:19.784Z,95076.00
2023-05-05T10:26:19.857Z,95072.00
2023-05-05T10:27:19.908Z,95074.00
2023-05-05T10:28:19.927Z,95072.00
2023-05-05T10:29:20.009Z,95074.00
2023-05-05T10:30:20.058Z,95072.00
2023-05-05T10:31:25.030Z,95070.00
2023-05-05T10:32:46.517Z,95068.00
2023-05-05T10:34:20.086Z,95062.00
2023-05-05T10:35:20.083Z,95058.00
2023-05-05T10:36:20.074Z,95058.00
2023-05-05T10:37:20.089Z,95056.00
2023-05-05T10:38:20.060Z,95054.00
2023-05-05T10:39:20.065Z,95054.00
2023-05-05T10:40:20.148Z,95050.00
2023-05-05T10:41:20.071Z,95048.00
2023-05-05T10:42:20.036Z,95045.00
2023-05-05T10:43:20.024Z,95043.00
2023-05-05T10:44:20.016Z,95041.00
2023-05-05T10:45:20.124Z,95043.00
2023-05-05T10:46:20.047Z,95037.00
2023-05-05T10:47:20.065Z,95039.00
2023-05-05T10:48:20.017Z,95037.00
2023-05-05T10:49:19.969Z,95033.00
2023-05-05T10:50:20.159Z,95031.00
2023-05-05T10:51:30.937Z,95029.00
2023-05-05T10:52:20.970Z,95027.00
2023-05-05T10:53:19.973Z,95025.00
2023-05-05T10:54:19.980Z,95023.00
2023-05-05T10:55:20.132Z,95025.00
2023-05-05T10:56:19.998Z,95019.00
2023-05-05T10:57:19.946Z,95019.00
2023-05-05T10:58:19.903Z,95017.00
2023-05-05T10:59:19.922Z,95015.00
2023-05-05T11:00:20.115Z,95013.00
2023-05-05T11:01:19.893Z,95013.00
2023-05-05T11:02:19.929Z,95011.00
2023-05-05T11:03:20.007Z,95009.00
2023-05-05T11:04:19.891Z,95003.00
2023-05-05T11:05:20.138Z,95005.00
2023-05-05T11:06:19.875Z,95005.00
2023-05-05T11:07:19.866Z,95005.00
2023-05-05T11:08:19.829Z,95001.00
2023-05-05T11:09:19.883Z,94998.00
2023-05-05T11:10:20.111Z,94996.00
2023-05-05T11:11:19.850Z,94994.00
2023-05-05T11:12:19.847Z,94990.00
2023-05-05T11:13:19.997Z,94990.00
2023-05-05T11:14:19.858Z,94988.00
2023-05-05T11:15:20.136Z,94986.00
2023-05-05T11:16:19.934Z,94980.00
2023-05-05T11:17:19.904Z,94982.00
2023-05-05T11:18:19.884Z,94980.00
2023-05-05T11:19:20.097Z,94978.00
2023-05-05T11:20:20.124Z,94974.00
2023-05-05T11:21:19.914Z,94976.00
2023-05-05T11:22:19.896Z,94974.00
2023-05-05T11:23:19.892Z,94968.00
2023-05-05T11:24:19.916Z,94964.00
2023-05-05T11:25:20.130Z,94962.00
2023-05-05T11:26:19.893Z,94962.00
2023-05-05T11:27:19.899Z,94962.00
2023-05-05T11:28:19.917Z,94960.00
2023-05-05T11:29:19.920Z,94962.00
2023-05-05T11:30:19.919Z,94958.00
2023-05-05T11:31:20.084Z,94958.00
2023-05-05T11:32:19.946Z,94954.00
2023-05-05T11:33:19.898Z,94956.00
2023-05-05T11:34:19.898Z,94956.00
2023-05-05T11:35:20.257Z,94949.00
2023-05-05T11:36:19.932Z,94949.00
2023-05-05T11:37:19.921Z,94947.00
2023-05-05T11:38:19.919Z,94945.00
2023-05-05T11:39:19.937Z,94945.00
2023-05-05T11:40:19.997Z,94943.00
2023-05-05T11:41:19.980Z,94941.00
2023-05-05T11:42:19.978Z,94939.00
2023-05-05T11:43:20.020Z,94937.00
2023-05-05T11:44:20.064Z,94935.00
2023-05-05T11:45:20.126Z,94933.00